createdAt,value
2019-01-14T00:01:53.693Z,89.60
2019-01-14T00:04:22.350Z,90.00
2019-01-14T00:06:51.342Z,87.80
2019-01-14T00:09:23.258Z,86.30
2019-01-14T00:11:50.406Z,85.40
2019-01-14T00:14:19.105Z,84.70
2019-01-14T00:16:47.823Z,85.70
2019-01-14T00:19:16.706Z,85.10
2019-01-14T00:21:45.836Z,84.50
2019-01-14T00:24:15.418Z,83.10
2019-01-14T00:26:44.081Z,82.40
2019-01-14T00:29:12.797Z,82.80
2019-01-14T00:31:41.599Z,83.10
2019-01-14T00:34:10.842Z,84.10
2019-01-14T00:36:39.695Z,87.30
2019-01-14T00:39:08.441Z,89.70
2019-01-14T00:41:37.238Z,89.70
2019-01-14T00:44:06.186Z,90.20
2019-01-14T00:46:34.917Z,89.30
2019-01-14T00:49:04.347Z,88.50
2019-01-14T00:51:33.358Z,86.80
2019-01-14T00:54:02.029Z,86.80
2019-01-14T00:56:30.871Z,86.90
2019-01-14T00:58:59.545Z,86.90
2019-01-14T01:01:28.795Z,84.50
2019-01-14T01:03:57.651Z,84.80
2019-01-14T01:06:26.459Z,83.90
2019-01-14T01:08:55.208Z,83.90
2019-01-14T01:11:24.111Z,83.90
2019-01-14T01:13:52.970Z,83.90
2019-01-14T01:16:21.625Z,84.40
2019-01-14T01:18:50.650Z,85.60
2019-01-14T01:21:19.483Z,85.40
2019-01-14T01:23:48.147Z,86.40
2019-01-14T01:26:17.088Z,87.10
2019-01-14T01:28:46.182Z,87.90
2019-01-14T01:31:14.946Z,87.90
2019-01-14T01:33:43.613Z,87.90
2019-01-14T01:36:12.325Z,88.50
2019-01-14T01:38:41.013Z,87.50
2019-01-14T01:41:09.672Z,86.70
2019-01-14T01:43:38.363Z,87.00
2019-01-14T01:46:07.029Z,88.30
2019-01-14T01:48:35.725Z,87.60
2019-01-14T01:51:04.566Z,87.40
2019-01-14T01:53:33.466Z,87.40
2019-01-14T01:56:05.528Z,89.00
2019-01-14T01:58:34.670Z,88.70
2019-01-14T02:01:04.806Z,88.40
2019-01-14T02:03:33.530Z,88.60
2019-01-14T02:06:02.294Z,88.80
2019-01-14T02:08:30.938Z,89.30
2019-01-14T02:11:02.851Z,88.50
2019-01-14T02:13:31.559Z,88.40
2019-01-14T02:16:00.328Z,88.40
2019-01-14T02:18:29.197Z,87.90
2019-01-14T02:20:58.171Z,87.10
2019-01-14T02:23:27.340Z,87.40
2019-01-14T02:25:59.740Z,86.50
2019-01-14T02:28:28.407Z,87.70
2019-01-14T02:30:59.529Z,87.50
2019-01-14T02:33:28.428Z,87.20
2019-01-14T02:35:57.675Z,86.80
2019-01-14T02:38:26.658Z,86.90
2019-01-14T02:40:55.419Z,86.40
2019-01-14T02:43:24.110Z,86.20
2019-01-14T02:45:55.212Z,86.10
2019-01-14T02:48:23.919Z,86.00
2019-01-14T02:50:52.738Z,84.50
2019-01-14T02:53:21.490Z,85.60
2019-01-14T02:55:50.161Z,85.90
2019-01-14T02:58:18.907Z,85.00
2019-01-14T03:00:50.362Z,85.70
2019-01-14T03:03:19.102Z,85.10
2019-01-14T03:05:47.843Z,85.90
2019-01-14T03:08:16.830Z,85.00
2019-01-14T03:10:45.879Z,85.10
2019-01-14T03:13:16.611Z,84.50
2019-01-14T03:15:47.571Z,85.00
2019-01-14T03:18:16.233Z,85.10
2019-01-14T03:20:44.942Z,84.00
2019-01-14T03:23:14.139Z,84.80
2019-01-14T03:25:44.986Z,83.80
2019-01-14T03:28:13.738Z,83.60
2019-01-14T03:30:42.415Z,82.10
2019-01-14T03:33:11.092Z,82.90
2019-01-14T03:35:40.842Z,82.60
2019-01-14T03:38:09.522Z,82.30
2019-01-14T03:40:38.186Z,82.10
2019-01-14T03:43:07.286Z,82.40
2019-01-14T03:45:35.933Z,82.70
2019-01-14T03:48:04.871Z,83.40
2019-01-14T03:50:33.950Z,83.80
2019-01-14T03:53:02.938Z,82.50
2019-01-14T03:55:31.801Z,82.90
2019-01-14T03:58:00.637Z,82.30
2019-01-14T04:00:29.357Z,82.10
2019-01-14T04:02:59.731Z,81.40
2019-01-14T04:05:28.506Z,82.40
2019-01-14T04:07:57.150Z,81.60
2019-01-14T04:10:25.842Z,80.60
2019-01-14T04:12:54.618Z,81.10
2019-01-14T04:15:23.375Z,81.70
2019-01-14T04:17:52.126Z,81.60
2019-01-14T04:20:21.008Z,81.40
2019-01-14T04:22:49.846Z,81.20
2019-01-14T04:25:18.646Z,80.40
2019-01-14T04:27:47.747Z,80.20
2019-01-14T04:30:19.108Z,79.00
2019-01-14T04:32:47.810Z,78.40
2019-01-14T04:35:16.654Z,80.10
2019-01-14T04:37:45.369Z,78.20
2019-01-14T04:40:14.221Z,77.70
2019-01-14T04:42:43.464Z,77.80
2019-01-14T04:45:12.335Z,77.90
2019-01-14T04:47:41.003Z,77.50
2019-01-14T04:50:12.301Z,78.40
2019-01-14T04:52:41.924Z,77.00
2019-01-14T04:55:11.078Z,77.30
2019-01-14T04:57:39.787Z,76.40
2019-01-14T05:00:15.467Z,76.40
2019-01-14T05:02:44.555Z,77.00
2019-01-14T05:05:15.354Z,76.90
2019-01-14T05:07:44.054Z,76.30
2019-01-14T05:10:13.560Z,77.00
2019-01-14T05:12:42.612Z,76.30
2019-01-14T05:15:12.029Z,77.90
2019-01-14T05:17:40.970Z,77.20
2019-01-14T05:20:15.995Z,76.90
2019-01-14T05:22:44.754Z,76.30
2019-01-14T05:25:13.725Z,77.40
2019-01-14T05:27:42.474Z,77.00
2019-01-14T05:30:11.768Z,77.30
2019-01-14T05:32:40.489Z,77.30
2019-01-14T05:35:10.067Z,76.50
2019-01-14T05:37:38.769Z,75.40
2019-01-14T05:40:17.629Z,75.30
2019-01-14T05:42:46.434Z,75.80
2019-01-14T05:45:15.493Z,75.50
2019-01-14T05:47:44.506Z,75.30
2019-01-14T05:50:13.830Z,75.90
2019-01-14T05:52:42.670Z,75.30
2019-01-14T05:55:11.950Z,75.10
2019-01-14T05:57:40.766Z,74.70
2019-01-14T06:00:29.403Z,74.30
2019-01-14T06:02:58.497Z,75.40
2019-01-14T06:05:27.518Z,74.40
2019-01-14T06:07:57.975Z,74.70
2019-01-14T06:10:27.082Z,74.90
2019-01-14T06:12:55.986Z,74.90
2019-01-14T06:15:24.955Z,75.00
2019-01-14T06:17:53.690Z,76.00
2019-01-14T06:20:24.171Z,76.90
2019-01-14T06:22:53.176Z,77.80
2019-01-14T06:25:21.979Z,77.90
2019-01-14T06:27:50.758Z,79.00
2019-01-14T06:30:21.680Z,79.70
2019-01-14T06:32:50.439Z,80.40
2019-01-14T06:35:19.376Z,81.10
2019-01-14T06:37:52.279Z,81.10
2019-01-14T06:40:19.410Z,81.40
2019-01-14T06:42:48.444Z,81.70
2019-01-14T06:45:17.889Z,82.10
2019-01-14T06:47:46.656Z,82.60
2019-01-14T06:50:16.815Z,81.80
2019-01-14T06:52:45.810Z,82.10
2019-01-14T06:55:15.058Z,81.70
2019-01-14T06:57:43.897Z,85.10
2019-01-14T07:00:16.142Z,86.60
2019-01-14T07:02:45.008Z,89.10
2019-01-14T07:05:14.307Z,91.90
2019-01-14T07:07:43.426Z,92.80
2019-01-14T07:10:17.259Z,93.30
2019-01-14T07:12:45.954Z,93.70
2019-01-14T07:15:14.909Z,93.60
2019-01-14T07:17:43.589Z,93.10
2019-01-14T07:20:13.403Z,91.90
2019-01-14T07:22:42.199Z,91.30
2019-01-14T07:25:11.366Z,90.50
2019-01-14T07:27:40.047Z,90.10
2019-01-14T07:30:11.669Z,89.40
2019-01-14T07:32:40.835Z,87.80
2019-01-14T07:35:09.727Z,84.50
2019-01-14T07:37:39.013Z,82.40
2019-01-14T07:40:09.443Z,79.10
2019-01-14T07:42:38.142Z,79.90
2019-01-14T07:45:07.524Z,75.40
2019-01-14T07:47:36.777Z,76.00
2019-01-14T07:50:07.162Z,76.40
2019-01-14T07:52:36.771Z,75.00
2019-01-14T07:55:05.830Z,75.40
2019-01-14T07:57:34.590Z,76.60
2019-01-14T08:00:04.640Z,76.50
2019-01-14T08:02:33.309Z,76.70
2019-01-14T08:05:01.985Z,78.10
2019-01-14T08:07:30.718Z,78.20
2019-01-14T08:09:59.650Z,78.00
2019-01-14T08:12:28.542Z,78.90
2019-01-14T08:14:57.295Z,77.50
2019-01-14T08:17:25.961Z,77.90
2019-01-14T08:19:54.639Z,78.90
2019-01-14T08:22:23.378Z,77.00
2019-01-14T08:24:52.434Z,77.00
2019-01-14T08:27:21.171Z,75.40
2019-01-14T08:29:49.898Z,75.10
2019-01-14T08:32:18.596Z,75.50
2019-01-14T08:34:47.623Z,73.90
2019-01-14T08:37:16.719Z,74.30
2019-01-14T08:39:45.608Z,72.60
2019-01-14T08:42:14.911Z,72.90
2019-01-14T08:44:44.248Z,74.50
2019-01-14T08:47:12.926Z,72.90
2019-01-14T08:49:41.836Z,71.10
2019-01-14T08:52:11.161Z,70.20
2019-01-14T08:54:40.422Z,69.60
2019-01-14T08:57:09.470Z,68.70
2019-01-14T08:59:38.354Z,67.50
2019-01-14T09:02:07.225Z,68.40
2019-01-14T09:04:36.155Z,66.80
2019-01-14T09:07:05.106Z,64.30
2019-01-14T09:09:33.939Z,63.80
2019-01-14T09:12:03.048Z,63.50
2019-01-14T09:14:32.457Z,63.60
2019-01-14T09:17:01.443Z,64.10
2019-01-14T09:19:30.142Z,61.30
2019-01-14T09:21:59.459Z,59.80
2019-01-14T09:24:28.130Z,55.00
2019-01-14T09:26:57.030Z,53.40
2019-01-14T09:29:25.806Z,51.20
2019-01-14T09:31:54.772Z,49.30
2019-01-14T09:34:23.626Z,50.10
2019-01-14T09:36:52.652Z,48.50
2019-01-14T09:39:21.324Z,47.30
2019-01-14T09:41:50.090Z,46.40
2019-01-14T09:44:18.914Z,47.80
2019-01-14T09:46:47.675Z,46.80
2019-01-14T09:49:16.342Z,46.00
2019-01-14T09:51:45.514Z,46.10
2019-01-14T09:54:14.201Z,45.90
2019-01-14T09:56:43.150Z,46.30
2019-01-14T09:59:11.949Z,45.00
2019-01-14T10:01:40.974Z,44.60
2019-01-14T10:04:09.692Z,44.10
2019-01-14T10:06:38.824Z,42.60
2019-01-14T10:09:08.400Z,42.10
2019-01-14T10:11:37.574Z,42.60
2019-01-14T10:14:06.417Z,43.00
2019-01-14T10:16:35.559Z,43.00
2019-01-14T10:19:05.250Z,43.90
2019-01-14T10:21:34.778Z,44.20
2019-01-14T10:24:03.539Z,45.60
2019-01-14T10:26:32.228Z,45.40
2019-01-14T10:29:00.954Z,44.50
2019-01-14T10:31:29.859Z,44.20
2019-01-14T10:33:58.736Z,45.20
2019-01-14T10:36:27.575Z,44.90
2019-01-14T10:38:56.257Z,45.00
2019-01-14T10:41:25.167Z,47.30
2019-01-14T10:43:53.889Z,49.20
2019-01-14T10:46:22.594Z,48.80
2019-01-14T10:48:51.425Z,48.70
2019-01-14T10:51:20.560Z,48.00
2019-01-14T10:53:49.237Z,48.30
2019-01-14T10:56:18.172Z,47.60
2019-01-14T10:58:46.866Z,48.80
2019-01-14T11:01:15.883Z,52.10
2019-01-14T11:03:44.659Z,54.40
2019-01-14T11:06:13.766Z,54.20
2019-01-14T11:08:42.451Z,54.40
2019-01-14T11:11:11.218Z,54.90
2019-01-14T11:13:40.258Z,56.60
2019-01-14T11:16:09.001Z,56.50
2019-01-14T11:18:47.522Z,57.60
2019-01-14T11:21:16.546Z,56.80
2019-01-14T11:23:45.255Z,57.30
2019-01-14T11:26:14.566Z,56.90
2019-01-14T11:28:43.216Z,57.10
2019-01-14T11:31:11.879Z,56.40
2019-01-14T11:33:41.442Z,55.90
2019-01-14T11:36:10.195Z,54.90
2019-01-14T11:38:44.200Z,55.30
2019-01-14T11:41:13.610Z,54.40
2019-01-14T11:43:42.279Z,54.40
2019-01-14T11:46:11.074Z,53.90
2019-01-14T11:48:40.359Z,56.00
2019-01-14T11:51:09.032Z,55.50
2019-01-14T11:53:38.260Z,53.00
2019-01-14T11:56:07.186Z,55.20
2019-01-14T11:58:36.122Z,55.30
2019-01-14T12:01:05.582Z,55.60
2019-01-14T12:03:34.481Z,57.20
2019-01-14T12:06:05.190Z,54.40
2019-01-14T12:08:34.078Z,53.40
2019-01-14T12:11:02.935Z,55.40
2019-01-14T12:13:31.596Z,56.40
2019-01-14T12:16:00.278Z,57.10
2019-01-14T12:18:29.054Z,55.30
2019-01-14T12:20:57.906Z,55.60
2019-01-14T12:23:26.592Z,54.80
2019-01-14T12:25:55.358Z,55.30
2019-01-14T12:28:24.014Z,55.60
2019-01-14T12:30:53.091Z,56.20
2019-01-14T12:33:22.185Z,55.80
2019-01-14T12:35:53.781Z,54.90
2019-01-14T12:38:24.862Z,55.40
2019-01-14T12:40:53.802Z,54.90
2019-01-14T12:43:22.462Z,54.40
2019-01-14T12:45:51.267Z,56.20
2019-01-14T12:48:20.586Z,55.00
2019-01-14T12:50:49.281Z,55.90
2019-01-14T12:53:18.066Z,55.40
2019-01-14T12:55:48.448Z,56.30
2019-01-14T12:58:17.422Z,54.70
2019-01-14T13:00:53.502Z,55.40
2019-01-14T13:03:22.583Z,56.30
2019-01-14T13:05:53.090Z,55.00
2019-01-14T13:08:21.895Z,54.60
2019-01-14T13:10:54.475Z,54.80
2019-01-14T13:13:23.211Z,56.20
2019-01-14T13:15:54.755Z,56.20
2019-01-14T13:18:23.770Z,55.40
2019-01-14T13:20:54.862Z,55.20
2019-01-14T13:23:24.913Z,55.00
2019-01-14T13:25:57.786Z,54.60
2019-01-14T13:28:26.535Z,56.70
2019-01-14T13:30:55.678Z,55.90
2019-01-14T13:33:24.430Z,55.60
2019-01-14T13:35:53.435Z,55.20
2019-01-14T13:38:22.620Z,56.40
2019-01-14T13:40:52.117Z,57.10
2019-01-14T13:43:20.818Z,57.20
2019-01-14T13:45:52.500Z,56.20
2019-01-14T13:48:20.943Z,55.80
2019-01-14T13:50:49.798Z,57.10
2019-01-14T13:53:18.555Z,57.00
2019-01-14T13:55:48.001Z,57.60
2019-01-14T13:58:16.688Z,57.10
2019-01-14T14:00:45.518Z,59.30
2019-01-14T14:03:14.442Z,58.10
2019-01-14T14:05:43.241Z,58.60
2019-01-14T14:08:11.953Z,59.70
2019-01-14T14:10:40.814Z,59.70
2019-01-14T14:13:10.030Z,59.30
2019-01-14T14:15:38.973Z,60.20
2019-01-14T14:18:07.834Z,60.60
2019-01-14T14:20:36.519Z,63.20
2019-01-14T14:23:05.520Z,63.30
2019-01-14T14:25:36.360Z,66.20
2019-01-14T14:28:08.342Z,66.40
2019-01-14T14:30:38.493Z,67.60
2019-01-14T14:33:07.310Z,68.10
2019-01-14T14:35:36.086Z,69.00
2019-01-14T14:38:06.636Z,69.60
2019-01-14T14:40:35.530Z,70.80
2019-01-14T14:43:04.931Z,70.40
2019-01-14T14:45:34.024Z,70.70
2019-01-14T14:48:02.757Z,69.20
2019-01-14T14:50:31.457Z,67.70
2019-01-14T14:53:00.494Z,67.50
2019-01-14T14:55:29.149Z,67.50
2019-01-14T14:57:57.833Z,66.60
2019-01-14T15:00:26.863Z,66.10
2019-01-14T15:02:55.833Z,65.40
2019-01-14T15:05:24.954Z,65.20
2019-01-14T15:07:53.781Z,63.40
2019-01-14T15:10:23.246Z,63.50
2019-01-14T15:12:52.502Z,64.00
2019-01-14T15:15:22.996Z,64.40
2019-01-14T15:17:52.001Z,65.40
2019-01-14T15:20:22.398Z,65.50
2019-01-14T15:22:51.667Z,65.60
2019-01-14T15:25:20.757Z,66.30
2019-01-14T15:27:49.837Z,66.00
2019-01-14T15:30:21.439Z,65.30
2019-01-14T15:32:50.131Z,65.90
2019-01-14T15:35:19.241Z,65.40
2019-01-14T15:37:48.127Z,65.30
2019-01-14T15:40:17.225Z,65.10
2019-01-14T15:42:45.931Z,64.40
2019-01-14T15:45:16.103Z,65.40
2019-01-14T15:47:44.967Z,65.80
2019-01-14T15:50:14.146Z,66.10
2019-01-14T15:52:43.046Z,66.50
2019-01-14T15:55:14.745Z,66.20
2019-01-14T15:57:46.198Z,68.10
2019-01-14T16:00:16.010Z,67.70
2019-01-14T16:02:44.926Z,68.60
2019-01-14T16:05:14.738Z,70.00
2019-01-14T16:07:44.032Z,70.60
2019-01-14T16:10:15.734Z,70.90
2019-01-14T16:12:44.747Z,71.30
2019-01-14T16:15:13.788Z,71.00
2019-01-14T16:17:42.697Z,72.50
2019-01-14T16:20:16.197Z,71.00
2019-01-14T16:22:45.100Z,71.70
2019-01-14T16:25:13.931Z,71.80
2019-01-14T16:27:42.706Z,71.60
2019-01-14T16:30:16.822Z,72.20
2019-01-14T16:32:45.676Z,71.60
2019-01-14T16:35:14.440Z,71.40
2019-01-14T16:37:45.543Z,72.00
2019-01-14T16:40:18.173Z,71.40
2019-01-14T16:42:45.092Z,71.80
2019-01-14T16:45:16.623Z,71.70
2019-01-14T16:47:45.908Z,71.80
2019-01-14T16:50:15.579Z,72.40
2019-01-14T16:52:44.886Z,72.50
2019-01-14T16:55:15.835Z,71.80
2019-01-14T16:57:47.509Z,71.90
2019-01-14T17:00:17.406Z,72.00
2019-01-14T17:02:46.572Z,71.80
2019-01-14T17:05:16.105Z,73.00
2019-01-14T17:07:45.163Z,72.60
2019-01-14T17:10:16.007Z,72.70
2019-01-14T17:12:45.145Z,72.40
2019-01-14T17:15:14.625Z,72.10
2019-01-14T17:17:43.337Z,72.60
2019-01-14T17:20:15.466Z,72.10
2019-01-14T17:22:44.736Z,72.50
2019-01-14T17:25:14.307Z,73.30
2019-01-14T17:27:43.195Z,73.80
2019-01-14T17:30:13.299Z,74.10
2019-01-14T17:32:42.795Z,74.80
2019-01-14T17:35:11.652Z,74.90
2019-01-14T17:37:40.624Z,75.60
2019-01-14T17:40:11.923Z,75.70
2019-01-14T17:42:41.290Z,75.60
2019-01-14T17:45:10.454Z,76.10
2019-01-14T17:47:39.553Z,76.30
2019-01-14T17:50:15.744Z,75.90
2019-01-14T17:52:44.942Z,76.20
2019-01-14T17:55:13.762Z,76.60
2019-01-14T17:57:42.847Z,76.50
2019-01-14T18:00:15.312Z,76.70
2019-01-14T18:02:45.760Z,76.80
2019-01-14T18:05:15.066Z,76.50
2019-01-14T18:07:43.797Z,76.90
2019-01-14T18:10:14.307Z,76.90
2019-01-14T18:12:43.516Z,76.90
2019-01-14T18:15:12.454Z,77.50
2019-01-14T18:17:41.282Z,76.80
2019-01-14T18:20:11.965Z,76.90
2019-01-14T18:22:40.780Z,77.20
2019-01-14T18:25:10.327Z,77.20
2019-01-14T18:27:39.054Z,77.20
2019-01-14T18:30:11.965Z,77.30
2019-01-14T18:32:40.651Z,77.30
2019-01-14T18:35:10.834Z,77.70
2019-01-14T18:37:39.526Z,78.00
2019-01-14T18:40:09.985Z,78.00
2019-01-14T18:42:38.874Z,78.20
2019-01-14T18:45:09.950Z,78.80
2019-01-14T18:47:38.994Z,78.70
2019-01-14T18:50:10.191Z,78.80
2019-01-14T18:52:39.163Z,78.80
2019-01-14T18:55:07.993Z,79.40
2019-01-14T18:57:36.855Z,79.60
2019-01-14T19:00:08.594Z,79.20
2019-01-14T19:02:37.294Z,79.90
2019-01-14T19:05:06.430Z,79.50
2019-01-14T19:07:35.638Z,80.20
2019-01-14T19:10:05.591Z,80.50
2019-01-14T19:12:35.038Z,80.80
2019-01-14T19:15:05.466Z,81.00
2019-01-14T19:17:34.216Z,81.00
2019-01-14T19:20:03.365Z,81.30
2019-01-14T19:22:32.258Z,81.90
2019-01-14T19:25:00.987Z,81.80
2019-01-14T19:27:29.827Z,82.10
2019-01-14T19:29:58.840Z,82.30
2019-01-14T19:32:27.595Z,82.60
2019-01-14T19:34:56.353Z,82.50
2019-01-14T19:37:26.066Z,82.40
2019-01-14T19:39:54.738Z,82.10
2019-01-14T19:42:23.449Z,82.40
2019-01-14T19:44:52.189Z,82.60
2019-01-14T19:47:20.994Z,82.90
2019-01-14T19:49:49.713Z,82.80
2019-01-14T19:52:18.431Z,83.10
2019-01-14T19:54:47.309Z,83.70
2019-01-14T19:57:16.306Z,83.80
2019-01-14T19:59:45.291Z,84.00
2019-01-14T20:02:14.339Z,84.30
2019-01-14T20:04:45.896Z,84.60
2019-01-14T20:07:14.610Z,84.90
2019-01-14T20:09:43.282Z,84.80
2019-01-14T20:12:12.379Z,85.20
2019-01-14T20:14:41.166Z,84.90
2019-01-14T20:17:09.876Z,84.70
2019-01-14T20:19:38.899Z,84.80
2019-01-14T20:22:07.662Z,84.40
2019-01-14T20:24:36.426Z,84.40
2019-01-14T20:27:06.120Z,84.10
2019-01-14T20:29:34.941Z,84.20
2019-01-14T20:32:04.588Z,84.30
2019-01-14T20:34:33.383Z,84.60
2019-01-14T20:37:02.230Z,84.40
2019-01-14T20:39:34.255Z,85.10
2019-01-14T20:42:03.318Z,85.60
2019-01-14T20:44:32.938Z,85.50
2019-01-14T20:47:01.968Z,85.70
2019-01-14T20:49:30.800Z,86.10
2019-01-14T20:51:59.527Z,86.20
2019-01-14T20:54:28.337Z,86.20
2019-01-14T20:56:57.770Z,86.50
2019-01-14T20:59:33.308Z,86.70
2019-01-14T21:01:56.920Z,86.70
2019-01-14T21:04:25.693Z,87.10
2019-01-14T21:06:54.463Z,87.10
2019-01-14T21:09:23.175Z,87.30
2019-01-14T21:11:51.993Z,87.50
2019-01-14T21:14:20.674Z,87.50
2019-01-14T21:16:49.351Z,87.50
2019-01-14T21:19:18.300Z,87.50
2019-01-14T21:21:47.295Z,87.20
2019-01-14T21:24:15.970Z,87.40
2019-01-14T21:26:44.848Z,86.90
2019-01-14T21:29:13.716Z,86.70
2019-01-14T21:31:42.619Z,86.50
2019-01-14T21:34:11.609Z,86.50
2019-01-14T21:36:40.309Z,86.40
2019-01-14T21:39:11.586Z,86.80
2019-01-14T21:41:40.560Z,87.10
2019-01-14T21:44:09.302Z,87.40
2019-01-14T21:46:38.029Z,87.00
2019-01-14T21:49:06.814Z,87.40
2019-01-14T21:51:35.518Z,87.30
2019-01-14T21:54:04.403Z,87.10
2019-01-14T21:56:33.116Z,87.30
2019-01-14T21:59:02.162Z,87.40
2019-01-14T22:01:30.882Z,88.00
2019-01-14T22:04:00.121Z,87.80
2019-01-14T22:06:28.850Z,88.10
2019-01-14T22:08:57.539Z,88.40
2019-01-14T22:11:29.423Z,88.80
2019-01-14T22:13:58.104Z,88.90
2019-01-14T22:16:26.794Z,89.20
2019-01-14T22:18:55.858Z,88.90
2019-01-14T22:21:24.544Z,88.50
2019-01-14T22:23:53.214Z,88.40
2019-01-14T22:26:22.111Z,88.20
2019-01-14T22:28:50.806Z,88.30
2019-01-14T22:31:19.514Z,88.70
2019-01-14T22:33:48.603Z,89.00
2019-01-14T22:36:17.377Z,89.10
2019-01-14T22:38:46.471Z,89.50
2019-01-14T22:41:15.299Z,89.50
2019-01-14T22:43:44.426Z,89.50
2019-01-14T22:46:13.483Z,89.40
2019-01-14T22:48:42.328Z,89.20
2019-01-14T22:51:11.016Z,89.00
2019-01-14T22:53:39.898Z,88.90
2019-01-14T22:56:08.972Z,89.20
2019-01-14T22:58:37.774Z,89.60
2019-01-14T23:01:34.469Z,89.00
2019-01-14T23:04:03.526Z,88.90
2019-01-14T23:06:32.297Z,89.00
2019-01-14T23:09:01.151Z,89.30
2019-01-14T23:11:29.866Z,89.30
2019-01-14T23:13:58.540Z,89.10
2019-01-14T23:16:27.830Z,88.90
2019-01-14T23:18:56.574Z,88.70
2019-01-14T23:21:25.525Z,88.50
2019-01-14T23:23:54.208Z,88.50
2019-01-14T23:26:22.959Z,88.10
2019-01-14T23:28:51.646Z,88.20
2019-01-14T23:31:20.378Z,88.10
2019-01-14T23:33:49.058Z,87.80
2019-01-14T23:36:18.006Z,87.80
2019-01-14T23:38:47.010Z,87.50
2019-01-14T23:41:15.923Z,87.60
2019-01-14T23:43:44.763Z,88.00
2019-01-14T23:46:14.486Z,88.40
2019-01-14T23:48:43.526Z,88.00
2019-01-14T23:51:12.659Z,87.90
2019-01-14T23:53:41.962Z,87.60
2019-01-14T23:56:10.873Z,87.60
2019-01-14T23:58:39.595Z,87.90
